createdAt,value
2019-04-10T00:01:55.138Z,24.47
2019-04-10T00:04:23.595Z,23.57
2019-04-10T00:06:52.259Z,23.90
2019-04-10T00:09:21.038Z,24.80
2019-04-10T00:11:49.483Z,23.83
2019-04-10T00:14:18.570Z,22.97
2019-04-10T00:16:46.990Z,23.50
2019-04-10T00:19:15.338Z,23.53
2019-04-10T00:21:43.644Z,24.97
2019-04-10T00:24:12.098Z,23.60
2019-04-10T00:26:41.620Z,24.00
2019-04-10T00:29:10.054Z,24.37
2019-04-10T00:31:38.362Z,25.37
2019-04-10T00:34:07.377Z,24.77
2019-04-10T00:36:35.784Z,23.73
2019-04-10T00:39:06.457Z,25.47
2019-04-10T00:41:34.835Z,24.70
2019-04-10T00:44:03.607Z,25.43
2019-04-10T00:46:32.554Z,25.73
2019-04-10T00:49:00.909Z,24.60
2019-04-10T00:51:29.198Z,25.03
2019-04-10T00:53:57.609Z,25.77
2019-04-10T00:56:26.311Z,26.70
2019-04-10T00:58:55.415Z,26.30
2019-04-10T01:01:23.953Z,25.17
2019-04-10T01:03:52.296Z,25.87
2019-04-10T01:06:20.705Z,25.83
2019-04-10T01:08:49.284Z,24.43
2019-04-10T01:11:17.670Z,25.20
2019-04-10T01:13:46.035Z,25.70
2019-04-10T01:16:16.270Z,25.90
2019-04-10T01:18:45.615Z,26.77
2019-04-10T01:21:14.487Z,25.80
2019-04-10T01:23:42.852Z,25.80
2019-04-10T01:26:11.196Z,26.50
2019-04-10T01:28:40.545Z,27.07
2019-04-10T01:31:09.263Z,26.93
2019-04-10T01:33:37.554Z,25.50
2019-04-10T01:36:06.935Z,27.33
2019-04-10T01:38:35.617Z,25.30
2019-04-10T01:41:04.264Z,25.60
2019-04-10T01:43:32.967Z,25.93
2019-04-10T01:46:02.107Z,25.67
2019-04-10T01:48:30.604Z,26.53
2019-04-10T01:50:59.090Z,25.90
2019-04-10T01:53:28.035Z,25.67
2019-04-10T01:55:57.527Z,26.53
2019-04-10T01:58:27.279Z,26.23
2019-04-10T02:01:03.888Z,28.60
2019-04-10T02:03:32.396Z,27.00
2019-04-10T02:06:01.078Z,27.60
2019-04-10T02:08:29.855Z,28.70
2019-04-10T02:10:58.658Z,27.97
2019-04-10T02:13:27.629Z,29.77
2019-04-10T02:15:56.675Z,28.77
2019-04-10T02:18:25.537Z,27.87
2019-04-10T02:20:53.932Z,28.87
2019-04-10T02:23:22.612Z,30.67
2019-04-10T02:25:50.947Z,31.20
2019-04-10T02:28:19.243Z,32.70
2019-04-10T02:30:47.939Z,34.40
2019-04-10T02:33:17.648Z,32.27
2019-04-10T02:35:47.767Z,34.50
2019-04-10T02:38:33.865Z,36.57
2019-04-10T02:40:47.492Z,36.60
2019-04-10T02:43:16.386Z,38.40
2019-04-10T02:45:44.764Z,38.33
2019-04-10T02:48:13.172Z,40.53
2019-04-10T02:50:42.846Z,39.90
2019-04-10T02:53:13.075Z,38.47
2019-04-10T02:55:43.145Z,41.70
2019-04-10T02:58:11.678Z,39.43
2019-04-10T03:00:42.032Z,41.50
2019-04-10T03:03:11.887Z,42.60
2019-04-10T03:05:40.768Z,41.87
2019-04-10T03:08:11.233Z,40.53
2019-04-10T03:10:47.413Z,40.93
2019-04-10T03:13:09.518Z,43.17
2019-04-10T03:15:39.204Z,40.60
2019-04-10T03:18:08.341Z,43.17
2019-04-10T03:20:36.705Z,41.00
2019-04-10T03:23:05.315Z,41.03
2019-04-10T03:25:35.093Z,43.90
2019-04-10T03:28:03.579Z,43.67
2019-04-10T03:30:33.998Z,43.30
2019-04-10T03:33:06.607Z,43.40
2019-04-10T03:35:35.669Z,45.07
2019-04-10T03:38:05.733Z,44.93
2019-04-10T03:40:34.137Z,45.23
2019-04-10T03:43:03.541Z,43.80
2019-04-10T03:45:32.780Z,46.67
2019-04-10T03:48:02.003Z,45.40
2019-04-10T03:50:30.373Z,44.07
2019-04-10T03:53:00.262Z,44.93
2019-04-10T03:55:29.231Z,43.97
2019-04-10T03:57:59.247Z,43.60
2019-04-10T04:00:27.886Z,45.27
2019-04-10T04:02:56.314Z,45.30
2019-04-10T04:05:24.674Z,44.70
2019-04-10T04:07:53.043Z,46.77
2019-04-10T04:10:21.463Z,47.10
2019-04-10T04:12:50.758Z,45.03
2019-04-10T04:15:19.882Z,45.10
2019-04-10T04:17:48.566Z,44.97
2019-04-10T04:20:17.020Z,47.53
2019-04-10T04:22:46.134Z,47.07
2019-04-10T04:25:14.892Z,47.57
2019-04-10T04:27:44.195Z,48.10
2019-04-10T04:30:12.760Z,48.23
2019-04-10T04:32:42.107Z,47.17
2019-04-10T04:35:11.221Z,48.87
2019-04-10T04:37:42.241Z,47.80
2019-04-10T04:40:11.110Z,47.67
2019-04-10T04:42:40.646Z,47.33
2019-04-10T04:45:09.197Z,46.33
2019-04-10T04:47:37.505Z,48.23
2019-04-10T04:50:06.093Z,44.97
2019-04-10T04:52:34.990Z,47.73
2019-04-10T04:57:43.198Z,51.07
2019-04-10T05:00:11.804Z,45.70
2019-04-10T05:02:40.166Z,49.37
2019-04-10T05:05:08.846Z,47.00
2019-04-10T05:07:37.635Z,48.30
2019-04-10T05:10:11.107Z,47.33
2019-04-10T05:12:39.567Z,48.40
2019-04-10T05:15:09.451Z,50.70
2019-04-10T05:17:39.320Z,48.10
2019-04-10T05:20:09.068Z,47.93
2019-04-10T05:22:37.658Z,47.57
2019-04-10T05:25:06.914Z,49.93
2019-04-10T05:27:35.238Z,49.40
2019-04-10T05:30:04.486Z,47.90
2019-04-10T05:32:32.979Z,48.90
2019-04-10T05:35:04.311Z,50.47
2019-04-10T05:37:31.684Z,48.83
2019-04-10T05:39:59.965Z,49.80
2019-04-10T05:42:28.979Z,47.63
2019-04-10T05:44:58.659Z,49.63
2019-04-10T05:47:28.029Z,48.10
2019-04-10T05:49:57.631Z,47.67
2019-04-10T05:52:26.933Z,48.30
2019-04-10T05:54:55.741Z,49.40
2019-04-10T05:57:24.583Z,49.27
2019-04-10T05:59:53.045Z,51.47
2019-04-10T06:02:21.411Z,46.93
2019-04-10T06:04:49.821Z,47.60
2019-04-10T06:07:19.172Z,48.80
2019-04-10T06:09:55.902Z,48.90
2019-04-10T06:12:18.141Z,46.00
2019-04-10T06:14:46.439Z,49.40
2019-04-10T06:17:14.804Z,49.03
2019-04-10T06:19:43.333Z,45.97
2019-04-10T06:22:12.747Z,47.97
2019-04-10T06:24:41.189Z,45.53
2019-04-10T06:27:10.349Z,46.67
2019-04-10T06:29:39.310Z,47.97
2019-04-10T06:32:07.917Z,48.50
2019-04-10T06:34:36.451Z,48.77
2019-04-10T06:37:06.116Z,48.57
2019-04-10T06:39:35.229Z,46.30
2019-04-10T06:42:04.519Z,50.27
2019-04-10T06:44:34.169Z,47.97
2019-04-10T06:47:02.711Z,46.93
2019-04-10T06:49:31.168Z,47.27
2019-04-10T06:51:59.752Z,47.57
2019-04-10T06:54:29.194Z,46.90
2019-04-10T06:56:58.601Z,46.60
2019-04-10T06:59:28.144Z,45.50
2019-04-10T07:02:05.649Z,48.00
2019-04-10T07:04:28.487Z,47.87
2019-04-10T07:07:04.667Z,48.07
2019-04-10T07:09:27.240Z,45.77
2019-04-10T07:11:59.891Z,45.97
2019-04-10T07:14:26.809Z,44.53
2019-04-10T07:16:55.242Z,49.07
2019-04-10T07:19:24.141Z,47.10
2019-04-10T07:21:52.429Z,46.50
2019-04-10T07:24:20.876Z,47.60
2019-04-10T07:26:50.786Z,46.77
2019-04-10T07:29:21.019Z,48.47
2019-04-10T07:31:49.436Z,47.17
2019-04-10T07:34:23.875Z,46.23
2019-04-10T07:36:47.943Z,46.77
2019-04-10T07:39:17.260Z,46.57
2019-04-10T07:41:45.593Z,45.40
2019-04-10T07:44:14.077Z,47.30
2019-04-10T07:46:42.982Z,46.47
2019-04-10T07:49:12.926Z,44.83
2019-04-10T07:51:42.396Z,46.00
2019-04-10T07:54:11.769Z,44.07
2019-04-10T07:56:40.329Z,44.93
2019-04-10T07:59:08.848Z,46.27
2019-04-10T08:01:37.593Z,46.80
2019-04-10T08:04:06.292Z,46.00
2019-04-10T08:06:35.300Z,45.00
2019-04-10T08:09:05.091Z,45.80
2019-04-10T08:11:33.808Z,47.90
2019-04-10T08:14:03.469Z,45.80
2019-04-10T08:16:32.896Z,42.70
2019-04-10T08:19:01.890Z,44.03
2019-04-10T08:21:31.592Z,43.57
2019-04-10T08:24:00.429Z,44.27
2019-04-10T08:26:28.805Z,44.23
2019-04-10T08:28:57.310Z,43.50
2019-04-10T08:31:25.926Z,44.67
2019-04-10T08:33:54.757Z,44.17
2019-04-10T08:36:23.499Z,40.77
2019-04-10T08:38:52.804Z,42.60
2019-04-10T08:41:21.358Z,40.73
2019-04-10T08:43:50.305Z,42.30
2019-04-10T08:46:19.752Z,41.93
2019-04-10T08:48:48.130Z,42.67
2019-04-10T08:51:17.084Z,41.37
2019-04-10T08:53:46.704Z,41.43
2019-04-10T08:56:16.138Z,42.47
2019-04-10T08:58:45.343Z,40.23
2019-04-10T09:01:13.640Z,40.87
2019-04-10T09:03:43.312Z,41.50
2019-04-10T09:06:11.858Z,40.87
2019-04-10T09:08:41.964Z,42.13
2019-04-10T09:11:11.227Z,40.70
2019-04-10T09:13:40.897Z,41.37
2019-04-10T09:16:10.046Z,41.53
2019-04-10T09:18:39.058Z,40.23
2019-04-10T09:21:07.424Z,39.20
2019-04-10T09:23:42.903Z,38.13
2019-04-10T09:26:05.953Z,40.63
2019-04-10T09:28:34.832Z,39.53
2019-04-10T09:31:03.373Z,40.83
2019-04-10T09:33:32.436Z,38.30
2019-04-10T09:36:00.962Z,39.80
2019-04-10T09:38:30.523Z,39.87
2019-04-10T09:40:59.423Z,39.80
2019-04-10T09:43:27.932Z,39.40
2019-04-10T09:45:56.423Z,40.00
2019-04-10T09:48:25.049Z,38.30
2019-04-10T09:50:53.460Z,39.60
2019-04-10T09:53:22.341Z,41.47
2019-04-10T09:55:50.858Z,39.60
2019-04-10T09:58:19.876Z,39.53
2019-04-10T10:00:48.346Z,39.93
2019-04-10T10:03:17.380Z,37.50
2019-04-10T10:05:46.684Z,40.30
2019-04-10T10:08:16.145Z,40.93
2019-04-10T10:10:45.013Z,39.50
2019-04-10T10:13:13.445Z,38.80
2019-04-10T10:15:41.861Z,38.47
2019-04-10T10:18:10.946Z,41.23
2019-04-10T10:20:39.665Z,39.90
2019-04-10T10:23:08.128Z,39.00
2019-04-10T10:25:37.465Z,40.90
2019-04-10T10:28:06.988Z,39.37
2019-04-10T10:30:35.726Z,39.17
2019-04-10T10:33:05.552Z,39.20
2019-04-10T10:35:34.009Z,41.90
2019-04-10T10:38:03.807Z,40.87
2019-04-10T10:40:32.381Z,40.77
2019-04-10T10:43:00.788Z,39.73
2019-04-10T10:45:29.269Z,38.77
2019-04-10T10:47:57.778Z,41.27
2019-04-10T10:50:28.913Z,37.60
2019-04-10T10:52:57.665Z,40.87
2019-04-10T10:55:26.019Z,39.33
2019-04-10T10:57:55.398Z,41.53
2019-04-10T11:00:23.812Z,42.50
2019-04-10T11:02:52.241Z,39.60
2019-04-10T11:05:21.119Z,39.97
2019-04-10T11:07:51.375Z,40.07
2019-04-10T11:12:50.733Z,39.50
2019-04-10T11:15:20.192Z,39.73
2019-04-10T11:17:49.865Z,41.60
2019-04-10T11:20:20.469Z,43.37
2019-04-10T11:22:49.639Z,42.67
2019-04-10T11:25:18.154Z,42.07
2019-04-10T11:27:47.538Z,42.93
2019-04-10T11:30:16.168Z,45.50
2019-04-10T11:32:44.646Z,45.37
2019-04-10T11:35:13.202Z,43.57
2019-04-10T11:37:44.763Z,42.90
2019-04-10T11:40:13.024Z,41.90
2019-04-10T11:42:42.977Z,42.37
2019-04-10T11:45:16.198Z,42.40
2019-04-10T11:47:42.677Z,42.63
2019-04-10T11:52:49.986Z,41.97
2019-04-10T11:55:16.936Z,41.97
2019-04-10T11:57:45.901Z,41.70
2019-04-10T12:00:18.836Z,43.50
2019-04-10T12:02:49.295Z,40.60
2019-04-10T12:05:19.918Z,39.70
2019-04-10T12:12:48.168Z,41.67
2019-04-10T12:15:17.256Z,39.93
2019-04-10T12:17:46.519Z,40.27
2019-04-10T12:20:16.651Z,39.67
2019-04-10T12:22:46.083Z,41.33
2019-04-10T12:25:15.519Z,41.10
2019-04-10T12:27:45.079Z,39.90
2019-04-10T12:30:13.838Z,40.67
2019-04-10T12:32:43.074Z,39.93
2019-04-10T12:35:11.518Z,40.57
2019-04-10T12:37:39.893Z,40.00
2019-04-10T12:40:09.761Z,41.73
2019-04-10T12:42:38.724Z,39.50
2019-04-10T12:45:08.296Z,42.20
2019-04-10T12:47:37.724Z,40.17
2019-04-10T12:50:08.104Z,40.07
2019-04-10T12:52:36.750Z,40.70
2019-04-10T12:55:08.259Z,40.53
2019-04-10T12:57:37.083Z,39.63
2019-04-10T13:00:09.840Z,41.10
2019-04-10T13:02:38.649Z,40.00
2019-04-10T13:05:07.426Z,39.30
2019-04-10T13:07:36.039Z,40.63
2019-04-10T13:10:27.429Z,39.20
2019-04-10T13:12:55.924Z,39.23
2019-04-10T13:15:25.503Z,41.03
2019-04-10T13:17:54.025Z,38.70
2019-04-10T13:20:22.404Z,40.83
2019-04-10T13:22:50.847Z,40.47
2019-04-10T13:25:19.328Z,38.87
2019-04-10T13:27:47.844Z,41.40
2019-04-10T13:30:16.633Z,41.03
2019-04-10T13:32:44.906Z,39.30
2019-04-10T13:35:13.717Z,37.70
2019-04-10T13:37:42.089Z,39.30
2019-04-10T13:40:11.244Z,37.80
2019-04-10T13:42:39.714Z,35.93
2019-04-10T13:45:08.481Z,36.97
2019-04-10T13:47:36.896Z,35.97
2019-04-10T13:50:06.821Z,36.23
2019-04-10T13:52:36.971Z,34.50
2019-04-10T13:55:07.397Z,34.30
2019-04-10T13:57:36.995Z,35.77
2019-04-10T14:00:06.401Z,34.40
2019-04-10T14:02:37.533Z,33.07
2019-04-10T14:05:09.993Z,36.27
2019-04-10T14:07:38.469Z,36.43
2019-04-10T14:10:08.684Z,33.67
2019-04-10T14:12:37.079Z,33.87
2019-04-10T14:15:05.778Z,34.53
2019-04-10T14:17:34.112Z,32.63
2019-04-10T14:20:02.870Z,35.43
2019-04-10T14:22:31.581Z,32.67
2019-04-10T14:25:00.970Z,33.30
2019-04-10T14:27:30.174Z,33.07
2019-04-10T14:29:58.760Z,32.27
2019-04-10T14:32:29.239Z,32.00
2019-04-10T14:34:58.783Z,31.70
2019-04-10T14:37:27.441Z,31.00
2019-04-10T14:39:55.975Z,31.00
2019-04-10T14:42:24.541Z,32.07
2019-04-10T14:44:53.152Z,30.83
2019-04-10T14:47:21.884Z,29.87
2019-04-10T14:49:53.658Z,30.10
2019-04-10T14:52:21.662Z,28.60
2019-04-10T14:54:50.322Z,29.23
2019-04-10T14:57:18.948Z,28.77
2019-04-10T14:59:49.147Z,27.57
2019-04-10T15:02:18.867Z,27.10
2019-04-10T15:04:47.215Z,26.83
2019-04-10T15:07:15.782Z,24.93
2019-04-10T15:09:44.283Z,25.40
2019-04-10T15:12:12.659Z,24.43
2019-04-10T15:14:41.143Z,24.77
2019-04-10T15:17:09.857Z,24.67
2019-04-10T15:19:38.158Z,24.80
2019-04-10T15:22:07.410Z,24.47
2019-04-10T15:24:35.849Z,24.27
2019-04-10T15:27:04.789Z,24.87
2019-04-10T15:29:33.546Z,25.10
2019-04-10T15:32:02.167Z,23.90
2019-04-10T15:34:30.665Z,24.70
2019-04-10T15:36:59.023Z,25.30
2019-04-10T15:39:33.924Z,23.77
2019-04-10T15:41:57.517Z,24.13
2019-04-10T15:44:26.046Z,24.27
2019-04-10T15:46:54.477Z,24.00
2019-04-10T15:49:22.999Z,23.73
2019-04-10T15:51:51.374Z,23.27
2019-04-10T15:54:19.780Z,21.90
2019-04-10T15:56:48.313Z,21.93
2019-04-10T15:59:16.838Z,23.40
2019-04-10T16:01:45.394Z,23.47
2019-04-10T16:04:14.883Z,24.20
2019-04-10T16:06:43.496Z,22.77
2019-04-10T16:09:14.814Z,22.70
2019-04-10T16:11:45.923Z,23.07
2019-04-10T16:14:20.837Z,23.83
2019-04-10T16:17:02.655Z,22.57
2019-04-10T16:19:36.595Z,25.90
2019-04-10T16:22:06.869Z,24.30
2019-04-10T16:24:35.206Z,23.33
2019-04-10T16:27:03.645Z,24.67
2019-04-10T16:29:32.341Z,25.93
2019-04-10T16:32:00.649Z,24.50
2019-04-10T16:34:30.124Z,23.00
2019-04-10T16:36:59.891Z,23.80
2019-04-10T16:39:28.383Z,23.87
2019-04-10T16:41:57.875Z,23.93
2019-04-10T16:44:27.283Z,22.73
2019-04-10T16:46:55.694Z,23.80
2019-04-10T16:49:24.634Z,24.17
2019-04-10T16:51:52.969Z,24.40
2019-04-10T16:54:21.619Z,24.80
2019-04-10T16:56:50.282Z,24.13
2019-04-10T16:59:18.680Z,22.73
2019-04-10T17:01:47.141Z,23.47
2019-04-10T17:04:16.735Z,22.00
2019-04-10T17:06:46.383Z,21.60
2019-04-10T17:09:16.632Z,23.10
2019-04-10T17:11:45.248Z,23.00
2019-04-10T17:14:13.665Z,21.40
2019-04-10T17:16:42.050Z,23.07
2019-04-10T17:19:10.443Z,22.00
2019-04-10T17:21:38.801Z,23.00
2019-04-10T17:24:07.256Z,25.80
2019-04-10T17:26:35.721Z,24.60
2019-04-10T17:29:05.042Z,24.13
2019-04-10T17:31:34.912Z,25.07
2019-04-10T17:34:03.784Z,27.00
2019-04-10T17:36:32.806Z,26.90
2019-04-10T17:39:02.506Z,28.07
2019-04-10T17:41:31.416Z,27.60
2019-04-10T17:44:02.016Z,29.43
2019-04-10T17:46:31.176Z,28.50
2019-04-10T17:49:01.094Z,29.47
2019-04-10T17:51:30.321Z,27.70
2019-04-10T17:53:59.932Z,30.20
2019-04-10T17:56:28.506Z,28.70
2019-04-10T17:58:58.098Z,29.50
2019-04-10T18:01:27.136Z,30.30
2019-04-10T18:03:59.005Z,29.07
2019-04-10T18:06:25.935Z,29.50
2019-04-10T18:08:54.851Z,29.27
2019-04-10T18:11:24.543Z,29.37
2019-04-10T18:13:53.141Z,29.97
2019-04-10T18:16:23.098Z,29.17
2019-04-10T18:18:51.782Z,29.37
2019-04-10T18:21:22.408Z,28.23
2019-04-10T18:23:51.476Z,28.97
2019-04-10T18:26:21.083Z,29.77
2019-04-10T18:28:49.788Z,29.03
2019-04-10T18:31:18.722Z,28.00
2019-04-10T18:33:47.292Z,28.60
2019-04-10T18:36:16.148Z,28.40
2019-04-10T18:38:44.560Z,28.00
2019-04-10T18:41:13.764Z,29.77
2019-04-10T18:43:42.540Z,28.80
2019-04-10T18:46:14.460Z,29.80
2019-04-10T18:48:44.237Z,27.83
2019-04-10T18:51:12.495Z,29.37
2019-04-10T18:53:42.307Z,27.00
2019-04-10T18:56:11.229Z,27.20
2019-04-10T18:58:47.924Z,27.77
2019-04-10T19:01:34.834Z,25.80
2019-04-10T19:04:10.404Z,26.50
2019-04-10T19:06:43.301Z,26.67
2019-04-10T19:09:18.394Z,26.30
2019-04-10T19:11:42.027Z,25.50
2019-04-10T19:14:10.438Z,25.67
2019-04-10T19:16:39.582Z,26.07
2019-04-10T19:19:08.487Z,26.13
2019-04-10T19:21:37.692Z,27.83
2019-04-10T19:24:06.098Z,28.07
2019-04-10T19:26:35.572Z,26.50
2019-04-10T19:29:05.313Z,26.50
2019-04-10T19:31:36.887Z,26.40
2019-04-10T19:34:05.211Z,27.37
2019-04-10T19:36:34.439Z,26.97
2019-04-10T19:39:03.011Z,26.40
2019-04-10T19:41:36.214Z,24.90
2019-04-10T19:44:02.423Z,26.87
2019-04-10T19:46:31.400Z,26.10
2019-04-10T19:48:59.879Z,24.90
2019-04-10T19:51:28.186Z,26.87
2019-04-10T19:53:57.651Z,25.50
2019-04-10T19:56:26.674Z,24.77
2019-04-10T19:58:55.150Z,24.50
2019-04-10T20:01:26.762Z,24.77
2019-04-10T20:03:54.227Z,24.13
2019-04-10T20:06:24.246Z,23.20
2019-04-10T20:08:53.081Z,24.07
2019-04-10T20:11:31.883Z,24.17
2019-04-10T20:13:51.548Z,23.00
2019-04-10T20:16:20.051Z,22.70
2019-04-10T20:18:48.765Z,22.73
2019-04-10T20:21:17.556Z,23.27
2019-04-10T20:23:46.129Z,24.17
2019-04-10T20:26:14.818Z,23.37
2019-04-10T20:28:43.223Z,23.83
2019-04-10T20:31:13.213Z,23.17
2019-04-10T20:33:41.686Z,23.33
2019-04-10T20:36:11.042Z,22.50
2019-04-10T20:38:39.319Z,22.67
2019-04-10T20:41:08.671Z,23.20
2019-04-10T20:43:37.361Z,22.10
2019-04-10T20:46:06.660Z,23.43
2019-04-10T20:48:36.138Z,23.30
2019-04-10T20:51:06.070Z,21.73
2019-04-10T20:53:34.501Z,22.37
2019-04-10T20:56:03.028Z,22.07
2019-04-10T20:58:31.465Z,21.83
2019-04-10T21:00:59.955Z,22.33
2019-04-10T21:03:28.452Z,22.27
2019-04-10T21:05:56.808Z,23.60
2019-04-10T21:08:25.561Z,21.43
2019-04-10T21:10:54.807Z,21.27
2019-04-10T21:13:23.544Z,21.00
2019-04-10T21:15:52.896Z,20.60
2019-04-10T21:18:22.184Z,20.60
2019-04-10T21:20:51.427Z,20.67
2019-04-10T21:23:19.817Z,21.13
2019-04-10T21:25:48.134Z,18.37
2019-04-10T21:28:16.453Z,18.60
2019-04-10T21:30:52.878Z,19.10
2019-04-10T21:33:28.873Z,17.77
2019-04-10T21:35:57.531Z,18.90
2019-04-10T21:38:25.867Z,17.60
2019-04-10T21:40:55.287Z,18.27
2019-04-10T21:43:26.331Z,18.57
2019-04-10T21:45:55.395Z,18.53
2019-04-10T21:48:24.607Z,17.03
2019-04-10T21:50:53.769Z,17.17
2019-04-10T21:53:22.217Z,18.40
2019-04-10T21:55:51.445Z,16.77
2019-04-10T21:58:19.977Z,17.70
2019-04-10T22:01:01.644Z,16.53
2019-04-10T22:03:30.159Z,18.17
2019-04-10T22:06:05.965Z,18.73
2019-04-10T22:08:39.399Z,17.87
2019-04-10T22:11:08.545Z,15.80
2019-04-10T22:13:38.007Z,16.67
2019-04-10T22:16:09.361Z,17.60
2019-04-10T22:18:39.337Z,16.33
2019-04-10T22:21:08.277Z,17.00
2019-04-10T22:23:36.710Z,16.57
2019-04-10T22:26:05.277Z,16.70
2019-04-10T22:28:33.676Z,18.50
2019-04-10T22:31:02.364Z,16.50
2019-04-10T22:33:30.733Z,16.37
2019-04-10T22:36:00.210Z,17.53
2019-04-10T22:38:29.344Z,16.60
2019-04-10T22:40:58.111Z,16.33
2019-04-10T22:43:27.841Z,16.83
2019-04-10T22:45:57.023Z,16.80
2019-04-10T22:48:25.366Z,17.40
2019-04-10T22:50:53.787Z,17.30
2019-04-10T22:53:23.383Z,17.37
2019-04-10T22:55:52.850Z,17.47
2019-04-10T22:58:21.256Z,17.40
2019-04-10T23:00:50.998Z,17.87
2019-04-10T23:03:20.226Z,16.97
2019-04-10T23:05:49.000Z,16.87
2019-04-10T23:08:17.673Z,16.63
2019-04-10T23:10:46.100Z,16.70
2019-04-10T23:13:14.500Z,17.53
2019-04-10T23:15:43.943Z,15.90
2019-04-10T23:18:13.061Z,16.80
2019-04-10T23:20:41.782Z,17.13
2019-04-10T23:23:10.666Z,17.57
2019-04-10T23:25:38.975Z,17.00
2019-04-10T23:28:07.493Z,16.57
2019-04-10T23:30:37.087Z,16.90
2019-04-10T23:33:05.936Z,16.67
2019-04-10T23:35:34.336Z,16.00
2019-04-10T23:38:03.573Z,15.57
2019-04-10T23:40:32.770Z,17.33
2019-04-10T23:43:09.635Z,16.40
2019-04-10T23:45:31.504Z,16.37
2019-04-10T23:48:00.347Z,15.90
2019-04-10T23:50:30.189Z,15.00
2019-04-10T23:52:58.650Z,15.80
2019-04-10T23:55:27.926Z,17.10
2019-04-10T23:57:56.387Z,15.33
